Flight Track Log - Related Links

Times and Time Zones

All times are in EDT time to prevent confusion due to time zone crossing. See the AAL2460 flight status page for this flight to view local times or setup timezone preferences in your user account.

Time Position Orientation Groundspeed Altitude Reporting Facility
EDT Latitude Longitude Course Direction KTS MPH feet Rate Location/Type
Wed 09:22:48 PM 33.9342 -118.4358 55° Northeast 174 200 1,900  Level Los Angeles Center
Wed 09:23:49 PM 33.9039 -118.5122 244° Southwest 248 285 4,500 3,073 Climbing Los Angeles Center
Wed 09:24:00 PM 34.0548 -118.1952 40° Northeast  Level FlightAware Approximate
Wed 09:24:51 PM 33.8628 -118.4642 136° Southeast 256 295 8,200  Level Los Angeles Center
Wed 09:25:00 PM 34.1317 -118.0700 59° Northeast  Level FlightAware Approximate
Wed 09:25:53 PM 33.9286 -118.4258 26° Northeast 289 333 11,400  Level Los Angeles Center
Wed 09:26:00 PM 34.1987 -117.9359 59° Northeast  Level FlightAware Approximate
Wed 09:26:54 PM 33.9878 -118.3506 47° Northeast 328 377 13,100  Level Los Angeles Center
Wed 09:27:00 PM 34.2678 -117.8156 40° Northeast  Level FlightAware Approximate
Wed 09:27:56 PM 34.0392 -118.2414 60° Northeast 369 425 15,600  Level Los Angeles Center
Wed 09:28:00 PM 34.3378 -117.6881 55° Northeast  Level FlightAware Approximate
Wed 09:29:00 PM 34.1136 -118.1051 54° Northeast  Level FlightAware Approximate
Wed 09:29:59 PM 34.1683 -118.0186 54° Northeast 408 470 20,700  Level Los Angeles Center
Wed 09:31:01 PM 34.2347 -117.8989 56° Northeast 425 489 22,800 1,887 Climbing Los Angeles Center
Wed 09:32:03 PM 34.3050 -117.7742 56° Northeast 445 512 24,600 1,742 Climbing Los Angeles Center
Wed 09:33:05 PM 34.3786 -117.6431 56° Northeast 465 535 26,400 1,707 Climbing Los Angeles Center
Wed 09:34:06 PM 34.4458 -117.4944 61° Northeast 481 554 28,100 1,951 Climbing Los Angeles Center
Wed 09:35:08 PM 34.4689 -117.3386 80° East 478 550 30,400 2,371 Climbing Los Angeles Center
Wed 09:36:10 PM 34.4900 -117.1528 82° East 468 539 33,000 2,244 Climbing Los Angeles Center
Wed 09:37:11 PM 34.5081 -116.9994 82° East 463 533 35,000 1,707 Climbing Los Angeles Center
Wed 09:38:13 PM 34.5250 -116.8492 82° East 455 524 36,500 1,355 Climbing Los Angeles Center
Wed 09:39:15 PM 34.5411 -116.6967 83° East 458 527 37,800 976 Climbing Los Angeles Center
Wed 09:40:16 PM 34.5581 -116.5417 82° East 464 534 38,500 585 Climbing Los Angeles Center
Wed 09:41:18 PM 34.5758 -116.3822 82° East 475 547 39,000 242 Climbing Los Angeles Center
Wed 09:42:20 PM 34.5919 -116.2206 83° East 484 557 39,000  Level Los Angeles Center
Wed 09:43:21 PM 34.6136 -116.0225 82° East 494 568 39,000  Level Los Angeles Center
Wed 09:44:23 PM 34.6303 -115.8583 83° East 492 566 39,000  Level Los Angeles Center
Wed 09:45:25 PM 34.6467 -115.6931 83° East 495 570 39,000  Level Los Angeles Center
Wed 09:46:26 PM 34.6639 -115.5319 83° East 498 573 39,000  Level Los Angeles Center
Wed 09:47:28 PM 34.6836 -115.3383 83° East 488 562 39,000  Level Los Angeles Center
Wed 09:48:30 PM 34.6989 -115.1758 83° East 486 559 39,000  Level Los Angeles Center
Wed 09:49:32 PM 34.7150 -115.0147 83° East 485 558 39,000  Level Los Angeles Center
Wed 09:50:34 PM 34.7303 -114.8536 83° East 483 556 39,000  Level Los Angeles Center
Wed 09:51:35 PM 34.7450 -114.6903 84° East 486 559 39,000  Level Los Angeles Center
Wed 09:52:37 PM 34.7597 -114.5272 84° East 487 560 39,000  Level Los Angeles Center
Wed 09:53:38 PM 34.7733 -114.3653 84° East 484 557 39,000  Level Los Angeles Center
Wed 09:54:40 PM 34.7864 -114.1703 85° East 483 556 39,000  Level Los Angeles Center
Wed 09:55:42 PM 34.7942 -114.0086 87° East 480 552 39,000  Level Los Angeles Center
Wed 09:56:44 PM 34.7975 -113.8683 88° East 480 552 39,000  Level Los Angeles Center
Wed 09:57:02 PM 34.7992 -113.8031 88° East 482 555 39,000  Level Albuquerque Center
Wed 09:58:04 PM 34.8008 -113.6400 89° East 483 556 39,000  Level Albuquerque Center
Wed 09:59:05 PM 34.8031 -113.4789 89° East 484 557 39,000  Level Albuquerque Center
Wed 10:00:07 PM 34.8039 -113.3150 90° East 487 560 39,000  Level Albuquerque Center
Wed 10:01:08 PM 34.8058 -113.1197 89° East 488 562 39,000  Level Albuquerque Center
Wed 10:02:09 PM 34.8075 -112.9569 89° East 488 562 39,000  Level Albuquerque Center
Wed 10:03:11 PM 34.8089 -112.7944 89° East 487 560 39,000  Level Albuquerque Center
Wed 10:04:12 PM 34.8100 -112.6306 89° East 490 564 39,000  Level Albuquerque Center
Wed 10:05:13 PM 34.8108 -112.4658 90° East 492 566 39,000  Level Albuquerque Center
Wed 10:06:15 PM 34.8119 -112.3011 89° East 492 566 39,000  Level Albuquerque Center
Wed 10:07:16 PM 34.8128 -112.1019 90° East 494 568 39,000  Level Albuquerque Center
Wed 10:08:17 PM 34.8131 -111.9364 90° East 495 570 39,000  Level Albuquerque Center
Wed 10:09:19 PM 34.8128 -111.7686 90° East 498 573 39,000  Level Albuquerque Center
Wed 10:10:20 PM 34.8142 -111.5936 89° East 500 575 39,000  Level Albuquerque Center
Wed 10:11:21 PM 34.8144 -111.4236 90° East 501 577 39,000  Level Albuquerque Center
Wed 10:12:23 PM 34.8133 -111.2544 90° East 500 575 39,000  Level Albuquerque Center
Wed 10:13:24 PM 34.8133 -111.0833 90° East 503 579 39,000  Level Albuquerque Center
Wed 10:14:25 PM 34.8103 -110.9125 91° East 505 581 39,000  Level Albuquerque Center
Wed 10:15:26 PM 34.8100 -110.7361 90° East 506 582 39,000  Level Albuquerque Center
Wed 10:16:28 PM 34.8083 -110.5456 91° East 506 582 39,000  Level Albuquerque Center
Wed 10:17:29 PM 34.8072 -110.3817 90° East 507 583 39,000  Level Albuquerque Center
Wed 10:18:30 PM 34.8042 -110.1869 91° East 512 589 39,000  Level Albuquerque Center
Wed 10:19:31 PM 34.8014 -110.0183 91° East 519 597 39,000  Level Albuquerque Center
Wed 10:20:33 PM 34.7997 -109.8503 91° East 520 598 39,000  Level Albuquerque Center
Wed 10:21:34 PM 34.7969 -109.6536 91° East 521 600 39,000  Level Albuquerque Center
Wed 10:22:35 PM 34.7961 -109.4844 90° East 523 602 39,000  Level Albuquerque Center
Wed 10:23:39 PM 34.7931 -109.2886 91° East 521 600 39,000  Level Albuquerque Center
Wed 10:24:38 PM 34.7906 -109.1200 91° East 522 601 39,000  Level Albuquerque Center
Wed 10:25:39 PM 34.7881 -108.9519 91° East 522 601 39,000  Level Albuquerque Center
Wed 10:26:40 PM 34.7844 -108.7561 91° East 521 600 39,000  Level Albuquerque Center
Wed 10:27:42 PM 34.7800 -108.5878 92° East 522 601 39,000  Level Albuquerque Center
Wed 10:28:43 PM 34.7764 -108.4119 91° East 522 601 39,000  Level Albuquerque Center
Wed 10:29:44 PM 34.7717 -108.2358 92° East 523 602 39,000  Level Albuquerque Center
Wed 10:30:45 PM 34.7672 -108.0589 92° East 525 604 39,000  Level Albuquerque Center
Wed 10:31:46 PM 34.7614 -107.8819 92° East 525 604 39,000  Level Albuquerque Center
Wed 10:32:47 PM 34.7567 -107.7028 92° East 530 610 39,000  Level Albuquerque Center
Wed 10:33:49 PM 34.7497 -107.4881 92° East 532 612 39,000  Level Albuquerque Center
Wed 10:34:50 PM 34.7436 -107.3044 92° East 542 624 39,000  Level Albuquerque Center
Wed 10:35:51 PM 34.7364 -107.1231 93° East 543 625 39,000  Level Albuquerque Center
Wed 10:36:52 PM 34.7292 -106.9422 93° East 544 626 39,000  Level Albuquerque Center
Wed 10:37:54 PM 34.7208 -106.7569 93° East 554 638 39,000  Level Albuquerque Center
Wed 10:38:55 PM 34.7133 -106.5756 93° East 548 631 39,000  Level Albuquerque Center
Wed 10:39:56 PM 34.7050 -106.3956 93° East 541 623 39,000  Level Albuquerque Center
Wed 10:40:57 PM 34.6936 -106.1728 93° East 540 621 39,000  Level Albuquerque Center
Wed 10:41:59 PM 34.6867 -105.9911 93° East 537 618 39,000  Level Albuquerque Center
Wed 10:43:00 PM 34.6761 -105.8106 94° East 534 615 39,000  Level Albuquerque Center
Wed 10:44:01 PM 34.6664 -105.6303 94° East 533 613 39,000  Level Albuquerque Center
Wed 10:45:02 PM 34.6572 -105.4494 93° East 533 613 39,000  Level Albuquerque Center
Wed 10:46:04 PM 34.6486 -105.2694 93° East 532 612 39,000  Level Albuquerque Center
Wed 10:47:05 PM 34.6383 -105.0889 94° East 532 612 39,000  Level Albuquerque Center
Wed 10:48:06 PM 34.6292 -104.9097 94° East 531 611 39,000  Level Albuquerque Center
Wed 10:49:07 PM 34.6186 -104.7286 94° East 534 615 39,000  Level Albuquerque Center
Wed 10:50:09 PM 34.6083 -104.5489 94° East 533 613 39,000  Level Albuquerque Center
Wed 10:51:10 PM 34.5972 -104.3694 94° East 533 613 39,000  Level Albuquerque Center
Wed 10:52:11 PM 34.5867 -104.1892 94° East 535 616 39,000  Level Albuquerque Center
Wed 10:53:12 PM 34.5728 -103.9800 95° East 533 613 39,000  Level Albuquerque Center
Wed 10:54:14 PM 34.5614 -103.7986 94° East 537 618 39,000  Level Albuquerque Center
Wed 10:55:15 PM 34.5497 -103.6169 94° East 538 619 39,000  Level Albuquerque Center
Wed 10:56:16 PM 34.5375 -103.4358 95° East 537 618 39,000  Level Albuquerque Center
Wed 10:57:17 PM 34.5244 -103.2536 95° East 539 620 39,000  Level Albuquerque Center
Wed 10:58:19 PM 34.5114 -103.0714 95° East 539 620 39,000  Level Albuquerque Center
Wed 10:59:20 PM 34.4986 -102.8881 95° East 542 624 39,000  Level Albuquerque Center
Wed 11:00:21 PM 34.4842 -102.7147 96° East 541 623 39,000  Level Albuquerque Center
Wed 11:01:22 PM 34.4633 -102.5336 98° East 544 626 39,000  Level Albuquerque Center
Wed 11:02:23 PM 34.4397 -102.3172 97° East 545 627 39,000  Level Albuquerque Center
Wed 11:03:24 PM 34.4206 -102.1364 97° East 545 627 39,000  Level Albuquerque Center
Wed 11:04:26 PM 34.4017 -101.9556 97° East 546 628 39,000  Level Albuquerque Center
Wed 11:05:27 PM 34.3806 -101.7747 98° East 546 628 39,000  Level Albuquerque Center
Wed 11:06:28 PM 34.3617 -101.5942 97° East 546 628 39,000  Level Albuquerque Center
Wed 11:07:29 PM 34.3419 -101.4147 98° East 543 625 39,000  Level Albuquerque Center
Wed 11:08:30 PM 34.3222 -101.2367 98° East 540 621 39,000  Level Albuquerque Center
Wed 11:09:31 PM 34.3025 -101.0583 98° East 540 621 39,000  Level Albuquerque Center
Wed 11:10:33 PM 34.2814 -100.8856 98° East 531 611 39,000  Level Albuquerque Center
Wed 11:11:42 PM 34.2581 -100.6725 97° East 528 608 39,000  Level Fort Worth Center
Wed 11:12:42 PM 34.2353 -100.4983 99° East 523 602 39,000 -450 Level Fort Worth Center
Wed 11:13:42 PM 34.2483 -100.3103 85° East 508 585 38,100 -1,000 Descending Fort Worth Center
Wed 11:14:42 PM 34.2792 -100.1406 78° East 508 585 37,000 -550 Descending Fort Worth Center
Wed 11:15:42 PM 34.3097 -99.9756 77° East 515 593 37,000  Level Fort Worth Center
Wed 11:16:42 PM 34.3425 -99.7981 77° East 515 593 37,000 -347 Level Fort Worth Center
Wed 11:17:43 PM 34.3456 -99.6344 89° East 504 580 36,300 -1,140 Descending Fort Worth Center
Wed 11:18:43 PM 34.2897 -99.4747 113° Southeast 492 566 34,700 -1,563 Descending Fort Worth Center
Wed 11:19:42 PM 34.2233 -99.3225 118° Southeast 497 572 33,200 -850 Descending Fort Worth Center
Wed 11:20:43 PM 34.1567 -99.1753 119° Southeast 497 572 33,000 -99 Descending Fort Worth Center
Wed 11:21:43 PM 34.0958 -99.0486 120° Southeast 497 572 33,000  Level Fort Worth Center
Wed 11:22:42 PM 34.0228 -98.8769 117° Southeast 497 572 33,000 -100 Level Fort Worth Center
Wed 11:23:43 PM 33.9617 -98.7433 119° Southeast 504 580 32,800 -1,289 Descending Fort Worth Center
Wed 11:24:43 PM 33.8842 -98.5794 120° Southeast 509 586 30,400 -2,650 Descending Fort Worth Center
Wed 11:25:43 PM 33.8164 -98.4286 118° Southeast 509 586 27,500 -3,000 Descending Fort Worth Center
Wed 11:26:43 PM 33.7467 -98.2753 119° Southeast 509 586 24,400 -2,672 Descending Fort Worth Center
Wed 11:27:42 PM 33.6786 -98.1297 119° Southeast 504 580 22,200 -2,350 Descending Fort Worth Center
Wed 11:28:43 PM 33.6147 -97.9947 120° Southeast 491 565 19,700 -2,182 Descending Fort Worth Center
Wed 11:29:43 PM 33.5528 -97.8672 120° Southeast 447 514 17,800 -1,850 Descending Fort Worth Center
Wed 11:30:43 PM 33.4925 -97.7722 127° Southeast 415 478 16,000 -2,100 Descending Fort Worth Center
Wed 11:31:43 PM 33.4133 -97.6772 135° Southeast 376 433 13,600 -2,100 Descending Fort Worth Center
Wed 11:32:43 PM 33.3447 -97.5975 136° Southeast 346 398 11,800 -1,311 Descending Fort Worth Center
Wed 11:33:42 PM 33.2864 -97.5278 135° Southeast 335 386 11,000 -403 Descending Fort Worth Center
Wed 11:34:42 PM 33.2175 -97.4483 136° Southeast 316 364 11,000  Level Fort Worth Center
Wed 11:35:42 PM 33.1547 -97.3786 137° Southeast 316 364 11,000  Level Fort Worth Center
Wed 11:36:42 PM 33.0942 -97.3044 134° Southeast 316 364 11,000  Level Fort Worth Center
Wed 11:37:42 PM 33.0317 -97.2325 136° Southeast 316 364 11,000  Level Fort Worth Center
Wed 11:38:42 PM 32.9772 -97.1708 136° Southeast 293 337 11,000 -800 Level Fort Worth Center
Wed 11:39:42 PM 32.9103 -97.1683 178° South 246 283 9,400 -1,700 Descending Fort Worth Center
Wed 11:40:42 PM 32.8478 -97.1711 182° South 246 283 7,600 -1,750 Descending Fort Worth Center
Wed 11:41:42 PM 32.7831 -97.1514 166° South 246 283 5,900 -1,686 Descending Fort Worth Center
Wed 11:42:43 PM 32.7308 -97.1144 149° Southeast 219 252 4,200 -1,642 Descending Fort Worth Center
Wed 11:43:28 PM 32.7333 -97.0667 86° East 206 237 3,000 -811 Descending Dallas / Fort Worth TRACON
Wed 11:44:34 PM 32.7667 -97.0333 40° Northeast 174 200 2,700 -273 Descending Dallas / Fort Worth TRACON

Login

Don't have an account? Register now (free) for customized features, flight alerts, and more!